createdAt,value
2017-04-19T00:00:09.629Z,79.19
2017-04-19T00:01:07.732Z,77.05
2017-04-19T00:02:05.964Z,78.11
2017-04-19T00:03:03.845Z,78.68
2017-04-19T00:04:01.741Z,77.61
2017-04-19T00:04:59.619Z,78.01
2017-04-19T00:05:57.652Z,76.14
2017-04-19T00:06:55.582Z,76.93
2017-04-19T00:07:53.497Z,79.95
2017-04-19T00:08:51.366Z,79.93
2017-04-19T00:09:49.309Z,78.68
2017-04-19T00:10:47.212Z,77.79
2017-04-19T00:11:45.117Z,77.29
2017-04-19T00:12:43.012Z,77.65
2017-04-19T00:13:40.888Z,76.66
2017-04-19T00:14:38.808Z,75.70
2017-04-19T00:15:37.408Z,74.97
2017-04-19T00:16:35.281Z,75.25
2017-04-19T00:17:33.177Z,76.62
2017-04-19T00:18:31.045Z,76.08
2017-04-19T00:19:28.998Z,75.94
2017-04-19T00:20:26.945Z,73.93
2017-04-19T00:21:24.845Z,76.45
2017-04-19T00:22:23.301Z,75.23
2017-04-19T00:23:21.208Z,74.60
2017-04-19T00:24:19.505Z,72.07
2017-04-19T00:25:17.414Z,72.80
2017-04-19T00:26:15.352Z,74.07
2017-04-19T00:27:13.635Z,73.68
2017-04-19T00:28:11.621Z,74.22
2017-04-19T00:29:09.587Z,76.56
2017-04-19T00:30:07.558Z,76.08
2017-04-19T00:31:05.550Z,75.61
2017-04-19T00:32:03.485Z,76.19
2017-04-19T00:33:01.377Z,75.59
2017-04-19T00:33:59.300Z,74.91
2017-04-19T00:34:57.789Z,75.05
2017-04-19T00:35:55.749Z,76.98
2017-04-19T00:36:53.634Z,74.47
2017-04-19T00:37:51.523Z,75.12
2017-04-19T00:38:49.405Z,74.75
2017-04-19T00:39:47.291Z,75.39
2017-04-19T00:40:45.171Z,76.62
2017-04-19T00:41:43.536Z,76.83
2017-04-19T00:42:41.439Z,77.10
2017-04-19T00:43:39.292Z,77.81
2017-04-19T00:44:37.234Z,76.86
2017-04-19T00:45:35.152Z,76.53
2017-04-19T00:46:33.069Z,75.87
2017-04-19T00:47:30.982Z,76.27
2017-04-19T00:48:28.886Z,75.67
2017-04-19T00:49:26.776Z,76.46
2017-04-19T00:50:24.708Z,77.39
2017-04-19T00:51:22.614Z,76.72
2017-04-19T00:52:20.472Z,76.22
2017-04-19T00:53:19.145Z,75.05
2017-04-19T00:54:17.047Z,74.95
2017-04-19T00:55:14.871Z,74.79
2017-04-19T00:56:12.729Z,75.37
2017-04-19T00:57:10.605Z,75.24
2017-04-19T00:58:08.755Z,75.14
2017-04-19T00:59:06.737Z,74.79
2017-04-19T01:00:04.694Z,74.84
2017-04-19T01:01:02.587Z,75.22
2017-04-19T01:02:00.491Z,74.74
2017-04-19T01:02:58.375Z,74.59
2017-04-19T01:03:56.285Z,74.72
2017-04-19T01:04:54.299Z,74.19
2017-04-19T01:05:53.123Z,73.45
2017-04-19T01:06:50.964Z,73.51
2017-04-19T01:07:48.837Z,73.82
2017-04-19T01:08:46.714Z,73.52
2017-04-19T01:09:44.689Z,74.05
2017-04-19T01:10:42.701Z,74.47
2017-04-19T01:11:40.567Z,75.13
2017-04-19T01:12:38.505Z,75.58
2017-04-19T01:13:36.370Z,74.38
2017-04-19T01:14:34.556Z,73.86
2017-04-19T01:15:32.601Z,74.47
2017-04-19T01:16:30.599Z,73.33
2017-04-19T01:17:29.263Z,74.18
2017-04-19T01:18:27.199Z,74.54
2017-04-19T01:19:25.057Z,74.71
2017-04-19T01:20:22.964Z,74.01
2017-04-19T01:21:20.803Z,74.03
2017-04-19T01:22:18.676Z,74.99
2017-04-19T01:23:16.582Z,73.93
2017-04-19T01:24:14.486Z,73.85
2017-04-19T01:25:12.543Z,73.65
2017-04-19T01:26:10.466Z,74.40
2017-04-19T01:27:08.383Z,73.91
2017-04-19T01:28:06.440Z,73.80
2017-04-19T01:29:04.344Z,74.10
2017-04-19T01:30:02.255Z,74.54
2017-04-19T01:31:00.156Z,74.53
2017-04-19T01:31:58.113Z,73.72
2017-04-19T01:32:56.008Z,73.77
2017-04-19T01:33:53.888Z,73.19
2017-04-19T01:34:51.836Z,74.26
2017-04-19T01:35:49.764Z,74.22
2017-04-19T01:36:47.833Z,74.42
2017-04-19T01:37:45.792Z,73.82
2017-04-19T01:38:43.652Z,73.98
2017-04-19T01:39:41.648Z,74.48
2017-04-19T01:40:39.585Z,73.35
2017-04-19T01:41:37.485Z,72.77
2017-04-19T01:42:35.395Z,72.65
2017-04-19T01:43:34.101Z,73.43
2017-04-19T01:44:32.156Z,73.91
2017-04-19T01:45:30.869Z,74.11
2017-04-19T01:46:36.656Z,72.81
2017-04-19T01:47:36.816Z,73.74
2017-04-19T01:48:34.791Z,72.34
2017-04-19T01:49:32.691Z,73.29
2017-04-19T01:50:30.645Z,73.17
2017-04-19T01:51:28.583Z,73.62
2017-04-19T01:52:26.481Z,74.14
2017-04-19T01:53:24.389Z,73.57
2017-04-19T01:54:23.347Z,73.05
2017-04-19T01:55:21.204Z,73.57
2017-04-19T01:56:19.042Z,73.21
2017-04-19T01:57:16.959Z,73.78
2017-04-19T01:58:14.875Z,73.18
2017-04-19T02:00:20.398Z,73.87
2017-04-19T02:01:18.408Z,72.64
2017-04-19T02:02:16.276Z,73.85
2017-04-19T02:03:14.226Z,73.52
2017-04-19T02:04:12.077Z,73.79
2017-04-19T02:05:10.175Z,73.98
2017-04-19T02:06:41.997Z,73.35
2017-04-19T02:07:43.772Z,73.00
2017-04-19T02:08:41.639Z,73.73
2017-04-19T02:09:39.540Z,74.61
2017-04-19T02:10:37.445Z,74.10
2017-04-19T02:11:35.314Z,73.40
2017-04-19T02:12:33.768Z,72.93
2017-04-19T02:13:31.614Z,73.59
2017-04-19T02:14:29.540Z,73.53
2017-04-19T02:15:27.398Z,73.38
2017-04-19T02:16:25.412Z,73.04
2017-04-19T02:17:23.356Z,73.52
2017-04-19T02:18:21.196Z,73.76
2017-04-19T02:19:19.049Z,73.95
2017-04-19T02:20:16.947Z,73.47
2017-04-19T02:21:14.805Z,73.32
2017-04-19T02:22:12.754Z,73.13
2017-04-19T02:23:10.663Z,73.29
2017-04-19T02:24:08.577Z,73.95
2017-04-19T02:25:07.577Z,73.51
2017-04-19T02:26:05.668Z,73.09
2017-04-19T02:27:03.634Z,74.05
2017-04-19T02:28:01.605Z,73.55
2017-04-19T02:28:59.480Z,74.18
2017-04-19T02:29:57.403Z,74.69
2017-04-19T02:30:55.921Z,73.79
2017-04-19T02:31:53.881Z,74.17
2017-04-19T02:32:52.024Z,73.63
2017-04-19T02:33:49.908Z,72.74
2017-04-19T02:34:47.825Z,72.18
2017-04-19T02:35:45.772Z,72.26
2017-04-19T02:36:43.629Z,71.33
2017-04-19T02:37:41.502Z,72.75
2017-04-19T02:38:39.371Z,74.18
2017-04-19T02:39:37.348Z,74.49
2017-04-19T02:40:35.173Z,74.33
2017-04-19T02:41:33.019Z,74.72
2017-04-19T02:42:31.363Z,74.22
2017-04-19T02:43:29.215Z,74.93
2017-04-19T02:44:27.368Z,74.38
2017-04-19T02:45:25.220Z,74.79
2017-04-19T02:46:23.154Z,74.62
2017-04-19T02:47:21.004Z,76.42
2017-04-19T02:48:18.955Z,75.67
2017-04-19T02:49:16.889Z,76.46
2017-04-19T02:50:14.788Z,75.41
2017-04-19T02:51:12.647Z,75.29
2017-04-19T02:52:10.507Z,75.76
2017-04-19T02:53:08.546Z,76.22
2017-04-19T02:54:06.499Z,74.89
2017-04-19T02:55:04.825Z,75.17
2017-04-19T02:56:02.729Z,74.03
2017-04-19T02:57:00.611Z,74.19
2017-04-19T02:57:58.532Z,74.35
2017-04-19T02:58:56.413Z,73.75
2017-04-19T02:59:54.313Z,74.07
2017-04-19T03:00:52.189Z,75.06
2017-04-19T03:01:50.040Z,75.17
2017-04-19T03:02:47.902Z,75.76
2017-04-19T03:03:45.765Z,75.09
2017-04-19T03:04:43.760Z,74.99
2017-04-19T03:05:41.693Z,76.15
2017-04-19T03:06:39.896Z,75.39
2017-04-19T03:07:37.940Z,74.83
2017-04-19T03:08:35.816Z,73.91
2017-04-19T03:09:33.736Z,75.11
2017-04-19T03:10:31.643Z,74.20
2017-04-19T03:11:29.559Z,73.58
2017-04-19T03:12:27.454Z,74.34
2017-04-19T03:13:25.317Z,74.20
2017-04-19T03:14:23.189Z,73.45
2017-04-19T03:15:21.084Z,72.99
2017-04-19T03:16:18.954Z,74.68
2017-04-19T03:17:16.887Z,75.10
2017-04-19T03:18:14.828Z,76.04
2017-04-19T03:19:12.756Z,74.73
2017-04-19T03:20:10.616Z,74.06
2017-04-19T03:21:08.456Z,72.51
2017-04-19T03:22:06.913Z,72.85
2017-04-19T03:23:04.808Z,73.06
2017-04-19T03:24:02.750Z,74.42
2017-04-19T03:25:00.660Z,75.39
2017-04-19T03:25:58.602Z,75.89
2017-04-19T03:26:56.464Z,74.88
2017-04-19T03:27:54.384Z,75.47
2017-04-19T03:28:52.305Z,75.53
2017-04-19T03:29:50.167Z,77.07
2017-04-19T03:30:48.142Z,76.49
2017-04-19T03:31:46.052Z,76.02
2017-04-19T03:32:43.990Z,75.51
2017-04-19T03:33:41.919Z,76.70
2017-04-19T03:34:40.517Z,77.30
2017-04-19T03:35:38.395Z,77.41
2017-04-19T03:36:36.268Z,78.06
2017-04-19T03:37:36.505Z,77.13
2017-04-19T03:38:38.407Z,77.47
2017-04-19T03:39:36.285Z,77.71
2017-04-19T03:40:34.159Z,76.94
2017-04-19T03:41:32.185Z,76.55
2017-04-19T03:42:30.120Z,76.84
2017-04-19T03:43:28.369Z,76.35
2017-04-19T03:44:26.288Z,76.79
2017-04-19T03:45:24.183Z,77.05
2017-04-19T03:46:22.292Z,77.41
2017-04-19T03:47:20.229Z,77.54
2017-04-19T03:48:18.056Z,76.62
2017-04-19T03:49:16.890Z,77.57
2017-04-19T03:50:15.769Z,76.81
2017-04-19T03:51:13.633Z,77.17
2017-04-19T03:52:11.523Z,76.37
2017-04-19T03:53:09.372Z,77.47
2017-04-19T03:54:07.266Z,78.04
2017-04-19T03:55:05.163Z,78.06
2017-04-19T03:56:03.075Z,77.63
2017-04-19T03:57:00.991Z,75.72
2017-04-19T03:57:58.865Z,75.58
2017-04-19T03:58:56.868Z,75.10
2017-04-19T03:59:54.753Z,76.18
2017-04-19T04:00:52.623Z,76.68
2017-04-19T04:01:50.538Z,77.71
2017-04-19T04:02:48.442Z,77.40
2017-04-19T04:03:46.270Z,76.13
2017-04-19T04:04:44.148Z,76.84
2017-04-19T04:05:42.032Z,75.75
2017-04-19T04:06:39.933Z,77.38
2017-04-19T04:07:37.826Z,77.80
2017-04-19T04:08:35.694Z,77.08
2017-04-19T04:09:33.582Z,76.86
2017-04-19T04:10:31.520Z,78.11
2017-04-19T04:11:29.578Z,78.82
2017-04-19T04:12:27.569Z,79.54
2017-04-19T04:13:25.524Z,78.88
2017-04-19T04:14:23.445Z,75.02
2017-04-19T04:15:21.386Z,75.20
2017-04-19T04:16:19.297Z,77.91
2017-04-19T04:17:17.166Z,77.50
2017-04-19T04:18:15.044Z,77.43
2017-04-19T04:19:13.863Z,77.28
2017-04-19T04:20:12.420Z,76.59
2017-04-19T04:21:10.367Z,77.33
2017-04-19T04:22:08.280Z,77.02
2017-04-19T04:23:06.228Z,77.21
2017-04-19T04:24:04.076Z,76.60
2017-04-19T04:25:02.237Z,76.74
2017-04-19T04:26:01.165Z,77.04
2017-04-19T04:26:59.036Z,78.04
2017-04-19T04:27:57.052Z,78.85
2017-04-19T04:28:55.085Z,78.75
2017-04-19T04:29:53.040Z,79.63
2017-04-19T04:30:50.885Z,78.79
2017-04-19T04:31:48.806Z,79.62
2017-04-19T04:32:46.676Z,79.85
2017-04-19T04:33:44.572Z,78.79
2017-04-19T04:34:42.456Z,78.04
2017-04-19T04:35:40.465Z,77.65
2017-04-19T04:36:38.363Z,78.29
2017-04-19T04:37:36.255Z,77.70
2017-04-19T04:38:34.111Z,78.43
2017-04-19T04:39:31.960Z,78.17
2017-04-19T04:40:29.824Z,77.49
2017-04-19T04:41:27.761Z,75.06
2017-04-19T04:42:25.741Z,76.24
2017-04-19T04:43:23.594Z,77.01
2017-04-19T04:44:21.500Z,76.86
2017-04-19T04:45:19.343Z,78.27
2017-04-19T04:46:17.229Z,77.77
2017-04-19T04:47:15.129Z,78.83
2017-04-19T04:48:13.033Z,77.77
2017-04-19T04:49:10.908Z,77.07
2017-04-19T04:50:08.776Z,77.57
2017-04-19T04:51:06.627Z,77.97
2017-04-19T04:52:04.531Z,78.61
2017-04-19T04:53:02.430Z,78.72
2017-04-19T04:54:00.313Z,78.27
2017-04-19T04:54:58.203Z,78.43
2017-04-19T04:55:56.101Z,77.50
2017-04-19T04:56:54.012Z,77.30
2017-04-19T04:57:51.883Z,77.47
2017-04-19T04:58:49.792Z,77.76
2017-04-19T04:59:47.681Z,80.06
2017-04-19T05:00:45.647Z,79.23
2017-04-19T05:01:43.530Z,78.81
2017-04-19T05:02:41.474Z,79.84
2017-04-19T05:03:39.364Z,78.88
2017-04-19T05:04:37.245Z,78.92
2017-04-19T05:05:35.122Z,77.56
2017-04-19T05:06:33.025Z,77.68
2017-04-19T05:07:30.930Z,76.97
2017-04-19T05:08:28.814Z,77.37
2017-04-19T05:09:26.691Z,76.15
2017-04-19T05:10:24.623Z,76.61
2017-04-19T05:11:22.528Z,77.03
2017-04-19T05:12:20.397Z,78.78
2017-04-19T05:13:18.246Z,79.29
2017-04-19T05:14:16.099Z,79.98
2017-04-19T05:15:13.951Z,79.89
2017-04-19T05:16:11.837Z,79.91
2017-04-19T05:17:09.768Z,80.81
2017-04-19T05:18:07.833Z,79.76
2017-04-19T05:19:05.828Z,78.91
2017-04-19T05:20:03.695Z,79.06
2017-04-19T05:21:01.642Z,78.35
2017-04-19T05:22:00.025Z,78.35
2017-04-19T05:22:58.514Z,80.12
2017-04-19T05:23:57.664Z,79.10
2017-04-19T05:24:56.636Z,78.94
2017-04-19T05:25:56.143Z,79.23
2017-04-19T05:26:55.108Z,79.45
2017-04-19T05:27:56.078Z,80.18
2017-04-19T05:28:54.658Z,79.61
2017-04-19T05:29:53.636Z,79.70
2017-04-19T05:30:53.556Z,79.11
2017-04-19T05:31:52.363Z,79.24
2017-04-19T05:32:57.766Z,78.08
2017-04-19T05:33:55.984Z,78.36
2017-04-19T05:34:59.160Z,78.05
2017-04-19T05:35:57.486Z,77.39
2017-04-19T05:36:55.824Z,78.08
2017-04-19T05:37:55.339Z,78.95
2017-04-19T05:38:54.397Z,78.18
2017-04-19T05:39:53.492Z,77.45
2017-04-19T05:40:52.571Z,77.56
2017-04-19T05:41:51.076Z,78.05
2017-04-19T05:42:49.663Z,77.83
2017-04-19T05:43:49.356Z,77.88
2017-04-19T05:44:49.199Z,77.81
2017-04-19T05:45:54.318Z,77.84
2017-04-19T05:46:58.242Z,77.12
2017-04-19T05:47:57.450Z,77.12
2017-04-19T05:49:00.857Z,76.98
2017-04-19T05:50:03.144Z,77.18
2017-04-19T05:51:01.935Z,77.21
2017-04-19T05:52:06.118Z,77.15
2017-04-19T05:53:10.368Z,76.59
2017-04-19T05:54:08.943Z,76.79
2017-04-19T05:55:12.275Z,76.81
2017-04-19T05:56:13.024Z,76.46
2017-04-19T05:57:11.812Z,76.74
2017-04-19T05:58:10.866Z,76.67
2017-04-19T05:59:19.501Z,76.59
2017-04-19T06:00:18.079Z,76.11
2017-04-19T06:01:16.623Z,75.97
2017-04-19T06:02:15.629Z,76.04
2017-04-19T06:03:14.168Z,76.40
2017-04-19T06:04:18.067Z,76.00
2017-04-19T06:05:16.144Z,76.70
2017-04-19T06:06:20.784Z,77.06
2017-04-19T06:07:19.097Z,76.48
2017-04-19T06:08:17.551Z,77.16
2017-04-19T06:09:21.761Z,76.33
2017-04-19T06:10:20.548Z,76.59
2017-04-19T06:11:24.524Z,75.85
2017-04-19T06:12:23.392Z,75.27
2017-04-19T06:13:22.117Z,75.10
2017-04-19T06:14:26.299Z,75.80
2017-04-19T06:15:30.055Z,75.96
2017-04-19T06:16:28.737Z,76.39
2017-04-19T06:17:27.767Z,76.32
2017-04-19T06:18:27.989Z,76.58
2017-04-19T06:19:27.911Z,75.60
2017-04-19T06:20:31.687Z,75.31
2017-04-19T06:21:29.858Z,75.27
2017-04-19T06:22:30.129Z,75.44
2017-04-19T06:23:30.992Z,76.22
2017-04-19T06:24:30.308Z,75.82
2017-04-19T06:25:29.861Z,75.02
2017-04-19T06:26:29.461Z,74.98
2017-04-19T06:27:29.125Z,76.27
2017-04-19T06:28:27.403Z,76.34
2017-04-19T06:29:31.317Z,76.47
2017-04-19T06:30:30.690Z,76.11
2017-04-19T06:31:35.376Z,76.11
2017-04-19T06:32:40.585Z,76.37
2017-04-19T06:33:39.143Z,74.63
2017-04-19T06:34:40.097Z,74.82
2017-04-19T06:35:39.385Z,75.31
2017-04-19T06:36:38.480Z,75.83
2017-04-19T06:37:38.183Z,75.80
2017-04-19T06:38:37.875Z,75.44
2017-04-19T06:39:37.488Z,74.76
2017-04-19T06:40:35.924Z,74.48
2017-04-19T06:41:34.857Z,74.41
2017-04-19T06:42:39.153Z,74.12
2017-04-19T06:43:38.091Z,73.36
2017-04-19T06:44:36.639Z,74.73
2017-04-19T06:45:42.171Z,73.90
2017-04-19T06:46:41.382Z,74.43
2017-04-19T06:47:39.865Z,74.30
2017-04-19T06:48:43.928Z,74.88
2017-04-19T06:49:43.207Z,74.77
2017-04-19T06:50:41.699Z,74.60
2017-04-19T06:51:46.988Z,74.95
2017-04-19T06:52:49.401Z,74.78
2017-04-19T06:53:48.141Z,74.46
2017-04-19T06:54:46.880Z,74.64
2017-04-19T06:55:45.107Z,75.08
2017-04-19T06:56:43.906Z,74.93
2017-04-19T06:57:42.875Z,74.71
2017-04-19T06:58:42.364Z,74.30
2017-04-19T06:59:44.388Z,74.83
2017-04-19T07:00:45.049Z,74.18
2017-04-19T07:01:43.906Z,75.05
2017-04-19T07:02:51.461Z,74.74
2017-04-19T07:03:55.725Z,74.31
2017-04-19T07:04:54.125Z,73.12
2017-04-19T07:05:53.849Z,73.42
2017-04-19T07:06:57.966Z,73.93
2017-04-19T07:07:56.573Z,73.34
2017-04-19T07:08:54.905Z,72.87
2017-04-19T07:09:53.984Z,73.43
2017-04-19T07:10:52.560Z,72.31
2017-04-19T07:11:50.848Z,73.32
2017-04-19T07:12:54.896Z,73.55
2017-04-19T07:13:53.473Z,74.01
2017-04-19T07:14:51.936Z,74.00
2017-04-19T07:15:50.004Z,73.99
2017-04-19T07:16:48.831Z,73.52
2017-04-19T07:17:47.189Z,73.98
2017-04-19T07:18:45.715Z,72.62
2017-04-19T07:19:48.083Z,72.73
2017-04-19T07:20:46.641Z,73.30
2017-04-19T07:21:54.618Z,73.80
2017-04-19T07:22:53.723Z,73.61
2017-04-19T07:23:52.742Z,73.26
2017-04-19T07:24:56.136Z,73.10
2017-04-19T07:26:00.065Z,72.53
2017-04-19T07:27:07.292Z,73.35
2017-04-19T07:28:05.672Z,72.13
2017-04-19T07:29:09.543Z,70.76
2017-04-19T07:30:08.079Z,71.38
2017-04-19T07:31:06.083Z,71.00
2017-04-19T07:32:09.416Z,69.93
2017-04-19T07:33:12.182Z,70.67
2017-04-19T07:34:16.127Z,71.08
2017-04-19T07:35:20.180Z,71.11
2017-04-19T07:36:24.635Z,71.04
2017-04-19T07:37:26.182Z,71.23
2017-04-19T07:38:29.720Z,71.83
2017-04-19T07:39:28.930Z,70.92
2017-04-19T07:40:28.063Z,70.33
2017-04-19T07:41:26.275Z,71.68
2017-04-19T07:42:25.855Z,71.32
2017-04-19T07:43:29.624Z,70.70
2017-04-19T07:44:28.853Z,70.90
2017-04-19T07:45:27.491Z,71.35
2017-04-19T07:46:25.748Z,71.00
2017-04-19T07:47:24.017Z,70.79
2017-04-19T07:48:22.141Z,70.07
2017-04-19T07:49:23.749Z,70.98
2017-04-19T07:50:27.159Z,70.25
2017-04-19T07:51:25.617Z,69.81
2017-04-19T07:52:24.137Z,69.67
2017-04-19T07:53:23.671Z,70.33
2017-04-19T07:54:22.990Z,69.65
2017-04-19T07:55:22.155Z,69.85
2017-04-19T07:56:20.864Z,69.05
2017-04-19T07:57:27.322Z,68.93
2017-04-19T07:58:25.574Z,70.13
2017-04-19T07:59:24.278Z,67.94
2017-04-19T08:00:23.712Z,68.15
2017-04-19T08:01:22.700Z,69.37
2017-04-19T08:02:20.724Z,69.13
2017-04-19T08:03:19.733Z,69.61
2017-04-19T08:04:19.211Z,69.46
2017-04-19T08:05:23.497Z,68.39
2017-04-19T08:06:21.693Z,68.98
2017-04-19T08:07:20.531Z,69.37
2017-04-19T08:08:19.005Z,68.22
2017-04-19T08:09:18.429Z,67.23
2017-04-19T08:10:17.051Z,68.06
2017-04-19T08:11:15.361Z,68.06
2017-04-19T08:12:13.837Z,68.08
2017-04-19T08:13:12.492Z,66.79
2017-04-19T08:14:14.753Z,67.10
2017-04-19T08:15:18.904Z,65.80
2017-04-19T08:16:17.643Z,66.66
2017-04-19T08:17:19.844Z,66.04
2017-04-19T08:18:18.444Z,66.28
2017-04-19T08:19:16.675Z,67.04
2017-04-19T08:20:15.525Z,65.69
2017-04-19T08:21:13.995Z,64.30
2017-04-19T08:22:13.435Z,63.77
2017-04-19T08:23:12.715Z,64.26
2017-04-19T08:24:11.179Z,63.13
2017-04-19T08:25:09.196Z,62.96
2017-04-19T08:26:07.829Z,64.06
2017-04-19T08:27:06.774Z,64.93
2017-04-19T08:28:05.148Z,64.18
2017-04-19T08:29:09.168Z,63.99
2017-04-19T08:30:07.488Z,62.87
2017-04-19T08:31:07.854Z,61.88
2017-04-19T08:32:07.475Z,62.89
2017-04-19T08:33:05.676Z,63.30
2017-04-19T08:34:04.640Z,63.08
2017-04-19T08:35:08.504Z,62.42
2017-04-19T08:36:07.189Z,63.33
2017-04-19T08:37:06.053Z,61.42
2017-04-19T08:38:04.159Z,61.40
2017-04-19T08:39:07.426Z,61.84
2017-04-19T08:40:11.036Z,62.49
2017-04-19T08:41:09.509Z,61.32
2017-04-19T08:42:09.132Z,62.36
2017-04-19T08:43:08.783Z,62.52
2017-04-19T08:44:10.319Z,62.70
2017-04-19T08:45:16.050Z,61.29
2017-04-19T08:46:20.583Z,61.92
2017-04-19T08:47:18.785Z,61.05
2017-04-19T08:48:17.892Z,60.65
2017-04-19T08:49:17.045Z,61.39
2017-04-19T08:50:21.829Z,60.14
2017-04-19T08:51:21.468Z,60.21
2017-04-19T08:52:20.419Z,60.84
2017-04-19T08:53:24.733Z,61.27
2017-04-19T08:54:24.033Z,61.09
2017-04-19T08:55:22.393Z,60.32
2017-04-19T08:56:21.740Z,60.64
2017-04-19T08:57:20.028Z,61.13
2017-04-19T08:58:23.903Z,60.25
2017-04-19T08:59:26.039Z,59.61
2017-04-19T09:00:25.936Z,59.48
2017-04-19T09:01:28.903Z,60.54
2017-04-19T09:02:32.627Z,58.00
2017-04-19T09:03:31.779Z,59.16
2017-04-19T09:04:30.857Z,59.54
2017-04-19T09:05:29.001Z,59.66
2017-04-19T09:06:27.093Z,59.26
2017-04-19T09:07:30.312Z,59.24
2017-04-19T09:08:29.320Z,60.29
2017-04-19T09:09:36.531Z,59.73
2017-04-19T09:10:34.803Z,59.53
2017-04-19T09:11:39.904Z,59.50
2017-04-19T09:12:38.674Z,59.98
2017-04-19T09:13:37.029Z,57.63
2017-04-19T09:14:40.801Z,58.15
2017-04-19T09:15:44.792Z,57.83
2017-04-19T09:16:44.765Z,56.88
2017-04-19T09:17:49.584Z,57.09
2017-04-19T09:18:47.834Z,55.99
2017-04-19T09:19:46.614Z,56.81
2017-04-19T09:20:45.109Z,55.50
2017-04-19T09:21:44.602Z,55.69
2017-04-19T09:22:43.066Z,57.41
2017-04-19T09:23:47.095Z,56.23
2017-04-19T09:24:46.358Z,56.49
2017-04-19T09:25:45.323Z,56.03
2017-04-19T09:26:44.049Z,55.71
2017-04-19T09:27:48.136Z,55.86
2017-04-19T09:28:53.002Z,55.66
2017-04-19T09:30:00.388Z,56.86
2017-04-19T09:31:04.904Z,56.90
2017-04-19T09:32:08.533Z,56.26
2017-04-19T09:33:07.185Z,52.74
2017-04-19T09:34:06.492Z,55.10
2017-04-19T09:35:09.960Z,56.18
2017-04-19T09:36:13.921Z,54.84
2017-04-19T09:37:13.640Z,54.44
2017-04-19T09:38:18.063Z,54.25
2017-04-19T09:39:16.894Z,53.90
2017-04-19T09:40:15.299Z,53.64
2017-04-19T09:41:13.596Z,55.34
2017-04-19T09:42:11.911Z,54.38
2017-04-19T09:43:10.662Z,53.69
2017-04-19T09:44:16.203Z,54.20
2017-04-19T09:45:14.764Z,53.61
2017-04-19T09:46:13.672Z,54.29
2017-04-19T09:47:12.016Z,52.74
2017-04-19T09:48:11.248Z,52.82
2017-04-19T09:49:14.764Z,54.19
2017-04-19T09:50:13.732Z,52.87
2017-04-19T09:51:13.080Z,54.37
2017-04-19T09:52:12.576Z,53.68
2017-04-19T09:53:13.580Z,52.93
2017-04-19T09:54:11.641Z,54.89
2017-04-19T09:55:09.805Z,53.33
2017-04-19T09:56:08.938Z,53.01
2017-04-19T09:57:13.688Z,52.89
2017-04-19T09:58:12.989Z,53.63
2017-04-19T09:59:10.966Z,53.83
2017-04-19T10:00:14.931Z,52.80
2017-04-19T10:01:13.071Z,53.47
2017-04-19T10:02:11.946Z,53.42
2017-04-19T10:03:10.748Z,53.10
2017-04-19T10:04:15.365Z,53.77
2017-04-19T10:05:15.626Z,53.80
2017-04-19T10:06:19.408Z,51.85
2017-04-19T10:07:18.493Z,50.52
2017-04-19T10:08:16.816Z,50.52
2017-04-19T10:09:16.297Z,52.11
2017-04-19T10:10:15.139Z,52.29
2017-04-19T10:11:18.881Z,52.30
2017-04-19T10:12:22.803Z,51.52
2017-04-19T10:13:21.258Z,53.52
2017-04-19T10:14:20.870Z,49.78
2017-04-19T10:15:19.587Z,51.41
2017-04-19T10:16:17.941Z,50.33
2017-04-19T10:17:17.092Z,51.72
2017-04-19T10:18:16.037Z,52.51
2017-04-19T10:19:20.917Z,52.23
2017-04-19T10:20:19.668Z,51.65
2017-04-19T10:21:18.319Z,51.70
2017-04-19T10:22:22.294Z,51.51
2017-04-19T10:23:26.256Z,49.97
2017-04-19T10:24:29.683Z,50.41
2017-04-19T10:25:34.164Z,49.78
2017-04-19T10:26:32.408Z,49.52
2017-04-19T10:27:33.565Z,49.57
2017-04-19T10:28:32.325Z,51.15
2017-04-19T10:29:36.518Z,50.53
2017-04-19T10:30:38.124Z,49.30
2017-04-19T10:31:42.057Z,49.10
2017-04-19T10:32:41.093Z,50.24
2017-04-19T10:33:39.324Z,49.88
2017-04-19T10:34:37.608Z,50.02
2017-04-19T10:35:41.035Z,49.49
2017-04-19T10:36:45.148Z,50.25
2017-04-19T10:37:44.355Z,49.67
2017-04-19T10:38:47.572Z,49.18
2017-04-19T10:39:46.037Z,49.64
2017-04-19T10:40:49.766Z,50.58
2017-04-19T10:41:47.995Z,51.20
2017-04-19T10:42:47.712Z,50.68
2017-04-19T10:43:51.283Z,51.06
2017-04-19T10:44:51.537Z,50.60
2017-04-19T10:45:54.599Z,49.89
2017-04-19T10:46:54.785Z,50.03
2017-04-19T10:47:58.585Z,49.82
2017-04-19T10:48:57.725Z,50.01
2017-04-19T10:49:59.997Z,49.79
2017-04-19T10:51:01.197Z,50.05
2017-04-19T10:51:59.668Z,48.84
2017-04-19T10:52:57.843Z,50.12
2017-04-19T10:53:56.720Z,49.99
2017-04-19T10:54:55.116Z,50.17
2017-04-19T10:55:53.523Z,50.47
2017-04-19T10:56:57.258Z,49.39
2017-04-19T10:58:00.758Z,49.03
2017-04-19T10:58:59.464Z,49.58
2017-04-19T10:59:57.971Z,48.70
2017-04-19T11:00:57.862Z,48.41
2017-04-19T11:02:01.663Z,49.59
2017-04-19T11:03:01.427Z,48.80
2017-04-19T11:04:00.265Z,48.65
2017-04-19T11:05:01.936Z,48.65
2017-04-19T11:06:00.955Z,48.92
2017-04-19T11:07:00.120Z,49.48
2017-04-19T11:08:00.593Z,50.29
2017-04-19T11:08:59.481Z,48.12
2017-04-19T11:09:57.731Z,47.48
2017-04-19T11:10:58.450Z,47.03
2017-04-19T11:11:56.699Z,47.92
2017-04-19T11:12:55.593Z,46.81
2017-04-19T11:13:55.964Z,47.25
2017-04-19T11:14:55.229Z,46.93
2017-04-19T11:15:58.910Z,46.26
2017-04-19T11:16:57.717Z,45.77
2017-04-19T11:17:57.067Z,46.52
2017-04-19T11:18:55.820Z,46.55
2017-04-19T11:19:54.608Z,45.77
2017-04-19T11:20:53.265Z,45.49
2017-04-19T11:21:54.297Z,46.15
2017-04-19T11:22:59.403Z,45.71
2017-04-19T11:23:58.614Z,43.86
2017-04-19T11:25:00.624Z,45.81
2017-04-19T11:25:59.108Z,44.42
2017-04-19T11:26:57.879Z,45.79
2017-04-19T11:27:56.728Z,45.78
2017-04-19T11:28:59.948Z,45.12
2017-04-19T11:29:57.852Z,44.89
2017-04-19T11:30:57.134Z,45.55
2017-04-19T11:31:57.520Z,46.81
2017-04-19T11:32:56.347Z,46.53
2017-04-19T11:33:56.751Z,46.04
2017-04-19T11:35:03.208Z,47.24
2017-04-19T11:36:02.779Z,46.23
2017-04-19T11:37:01.576Z,46.47
2017-04-19T11:38:01.142Z,46.16
2017-04-19T11:39:01.557Z,46.67
2017-04-19T11:40:05.184Z,44.92
2017-04-19T11:41:12.071Z,45.03
2017-04-19T11:42:13.591Z,46.38
2017-04-19T11:43:11.611Z,45.41
2017-04-19T11:44:16.035Z,46.04
2017-04-19T11:45:20.331Z,45.73
2017-04-19T11:46:19.163Z,45.25
2017-04-19T11:47:17.285Z,43.54
2017-04-19T11:48:17.549Z,44.17
2017-04-19T11:49:16.395Z,43.78
2017-04-19T11:50:16.316Z,43.89
2017-04-19T11:51:15.869Z,43.09
2017-04-19T11:52:15.084Z,43.33
2017-04-19T11:53:14.940Z,42.13
2017-04-19T11:54:19.669Z,42.47
2017-04-19T11:55:23.401Z,43.49
2017-04-19T11:56:21.758Z,43.69
2017-04-19T11:57:20.983Z,42.02
2017-04-19T11:58:24.655Z,43.05
2017-04-19T11:59:23.283Z,44.08
2017-04-19T12:00:21.816Z,43.26
2017-04-19T12:01:20.453Z,43.03
2017-04-19T12:02:19.726Z,43.26
2017-04-19T12:03:18.096Z,43.33
2017-04-19T12:04:22.527Z,43.20
2017-04-19T12:05:21.115Z,43.46
2017-04-19T12:06:24.468Z,43.18
2017-04-19T12:07:23.222Z,43.54
2017-04-19T12:08:22.289Z,43.10
2017-04-19T12:09:24.081Z,42.58
2017-04-19T12:10:23.384Z,42.16
2017-04-19T12:11:22.791Z,43.19
2017-04-19T12:12:22.807Z,40.74
2017-04-19T12:13:22.241Z,43.34
2017-04-19T12:14:21.026Z,42.88
2017-04-19T12:15:21.065Z,42.85
2017-04-19T12:16:19.907Z,41.74
2017-04-19T12:17:20.092Z,43.12
2017-04-19T12:18:18.797Z,42.64
2017-04-19T12:19:17.884Z,43.46
2017-04-19T12:20:17.022Z,44.74
2017-04-19T12:21:15.973Z,43.83
2017-04-19T12:22:15.541Z,42.06
2017-04-19T12:23:15.366Z,42.54
2017-04-19T12:24:14.535Z,42.54
2017-04-19T12:25:17.991Z,42.79
2017-04-19T12:26:16.534Z,42.41
2017-04-19T12:27:22.158Z,42.19
2017-04-19T12:28:26.455Z,43.67
2017-04-19T12:29:30.562Z,43.54
2017-04-19T12:30:34.529Z,43.67
2017-04-19T12:31:33.056Z,43.44
2017-04-19T12:32:36.878Z,41.28
2017-04-19T12:33:36.393Z,43.09
2017-04-19T12:34:40.957Z,41.49
2017-04-19T12:35:45.438Z,41.51
2017-04-19T12:36:49.259Z,41.57
2017-04-19T12:37:53.567Z,42.21
2017-04-19T12:38:52.683Z,42.31
2017-04-19T12:39:53.353Z,42.29
2017-04-19T12:40:53.318Z,42.56
2017-04-19T12:41:55.583Z,40.11
2017-04-19T12:43:00.701Z,42.35
2017-04-19T12:44:04.751Z,39.62
2017-04-19T12:45:02.983Z,40.47
2017-04-19T12:46:07.359Z,41.08
2017-04-19T12:47:10.266Z,40.85